sensor_id;sensor_type;location;lat;lon;timestamp;P1;durP1;ratioP1;P2;durP2;ratioP2
41468;SDS011;27206;47.032;15.484;2023-04-05T00:01:07;5.65;;;2.20;;
41468;SDS011;27206;47.032;15.484;2023-04-05T00:03:36;5.68;;;1.60;;
41468;SDS011;27206;47.032;15.484;2023-04-05T00:06:02;3.50;;;1.42;;
41468;SDS011;27206;47.032;15.484;2023-04-05T00:08:29;2.45;;;1.25;;
41468;SDS011;27206;47.032;15.484;2023-04-05T00:10:55;8.00;;;2.17;;
41468;SDS011;27206;47.032;15.484;2023-04-05T00:13:21;3.70;;;1.92;;
41468;SDS011;27206;47.032;15.484;2023-04-05T00:15:47;4.57;;;1.70;;
41468;SDS011;27206;47.032;15.484;2023-04-05T00:18:13;4.78;;;1.77;;
41468;SDS011;27206;47.032;15.484;2023-04-05T00:20:51;5.75;;;2.00;;
41468;SDS011;27206;47.032;15.484;2023-04-05T00:23:18;3.83;;;1.70;;
41468;SDS011;27206;47.032;15.484;2023-04-05T00:25:45;3.55;;;1.45;;
41468;SDS011;27206;47.032;15.484;2023-04-05T00:28:11;4.10;;;2.10;;
41468;SDS011;27206;47.032;15.484;2023-04-05T00:30:37;6.82;;;1.90;;
41468;SDS011;27206;47.032;15.484;2023-04-05T00:33:03;5.35;;;2.17;;
41468;SDS011;27206;47.032;15.484;2023-04-05T00:35:29;4.65;;;1.98;;
41468;SDS011;27206;47.032;15.484;2023-04-05T00:37:55;3.10;;;1.42;;
41468;SDS011;27206;47.032;15.484;2023-04-05T00:40:21;4.20;;;1.90;;
41468;SDS011;27206;47.032;15.484;2023-04-05T00:42:47;3.60;;;1.67;;
41468;SDS011;27206;47.032;15.484;2023-04-05T00:45:13;4.35;;;1.90;;
41468;SDS011;27206;47.032;15.484;2023-04-05T00:47:42;10.77;;;2.20;;
41468;SDS011;27206;47.032;15.484;2023-04-05T00:50:08;5.28;;;1.90;;
41468;SDS011;27206;47.032;15.484;2023-04-05T00:52:36;5.15;;;1.75;;
41468;SDS011;27206;47.032;15.484;2023-04-05T00:55:02;8.15;;;1.95;;
41468;SDS011;27206;47.032;15.484;2023-04-05T00:57:33;6.68;;;2.08;;
41468;SDS011;27206;47.032;15.484;2023-04-05T01:00:03;4.60;;;1.75;;
41468;SDS011;27206;47.032;15.484;2023-04-05T01:02:40;6.03;;;2.30;;
41468;SDS011;27206;47.032;15.484;2023-04-05T01:05:20;3.45;;;1.90;;
41468;SDS011;27206;47.032;15.484;2023-04-05T01:08:11;5.43;;;1.85;;
41468;SDS011;27206;47.032;15.484;2023-04-05T01:10:41;3.67;;;1.65;;
41468;SDS011;27206;47.032;15.484;2023-04-05T01:13:12;5.38;;;1.80;;
41468;SDS011;27206;47.032;15.484;2023-04-05T01:15:41;3.40;;;1.65;;
41468;SDS011;27206;47.032;15.484;2023-04-05T01:18:06;3.63;;;2.00;;
41468;SDS011;27206;47.032;15.484;2023-04-05T01:20:36;4.68;;;2.08;;
41468;SDS011;27206;47.032;15.484;2023-04-05T01:23:27;3.70;;;2.05;;
41468;SDS011;27206;47.032;15.484;2023-04-05T01:31:47;3.53;;;1.58;;
41468;SDS011;27206;47.032;15.484;2023-04-05T01:37:07;4.82;;;2.00;;
41468;SDS011;27206;47.032;15.484;2023-04-05T01:39:36;5.35;;;2.58;;
41468;SDS011;27206;47.032;15.484;2023-04-05T01:42:02;4.32;;;1.77;;
41468;SDS011;27206;47.032;15.484;2023-04-05T01:44:28;4.38;;;1.90;;
41468;SDS011;27206;47.032;15.484;2023-04-05T01:46:54;5.13;;;2.25;;
41468;SDS011;27206;47.032;15.484;2023-04-05T01:49:20;4.70;;;2.20;;
41468;SDS011;27206;47.032;15.484;2023-04-05T01:51:47;5.40;;;2.10;;
41468;SDS011;27206;47.032;15.484;2023-04-05T01:54:12;4.25;;;1.58;;
41468;SDS011;27206;47.032;15.484;2023-04-05T01:56:38;5.35;;;2.10;;
41468;SDS011;27206;47.032;15.484;2023-04-05T01:59:04;6.53;;;2.45;;
41468;SDS011;27206;47.032;15.484;2023-04-05T02:01:29;3.88;;;2.00;;
41468;SDS011;27206;47.032;15.484;2023-04-05T02:03:55;7.55;;;1.83;;
41468;SDS011;27206;47.032;15.484;2023-04-05T02:06:21;3.17;;;1.70;;
41468;SDS011;27206;47.032;15.484;2023-04-05T02:08:47;5.65;;;1.83;;
41468;SDS011;27206;47.032;15.484;2023-04-05T02:11:12;6.65;;;2.00;;
41468;SDS011;27206;47.032;15.484;2023-04-05T02:13:38;4.75;;;2.15;;
41468;SDS011;27206;47.032;15.484;2023-04-05T02:16:04;4.40;;;2.13;;
41468;SDS011;27206;47.032;15.484;2023-04-05T02:18:30;4.32;;;1.70;;
41468;SDS011;27206;47.032;15.484;2023-04-05T02:21:02;3.90;;;1.90;;
41468;SDS011;27206;47.032;15.484;2023-04-05T02:25:56;4.85;;;1.85;;
41468;SDS011;27206;47.032;15.484;2023-04-05T02:28:22;3.08;;;1.80;;
41468;SDS011;27206;47.032;15.484;2023-04-05T02:30:47;4.63;;;2.15;;
41468;SDS011;27206;47.032;15.484;2023-04-05T02:33:13;6.38;;;2.00;;
41468;SDS011;27206;47.032;15.484;2023-04-05T02:35:38;3.22;;;1.90;;
41468;SDS011;27206;47.032;15.484;2023-04-05T02:38:04;4.15;;;2.00;;
41468;SDS011;27206;47.032;15.484;2023-04-05T02:40:31;4.78;;;1.85;;
41468;SDS011;27206;47.032;15.484;2023-04-05T02:42:57;5.15;;;1.67;;
41468;SDS011;27206;47.032;15.484;2023-04-05T02:45:22;6.57;;;2.20;;
41468;SDS011;27206;47.032;15.484;2023-04-05T02:47:48;3.92;;;1.80;;
41468;SDS011;27206;47.032;15.484;2023-04-05T02:50:14;5.15;;;2.22;;
41468;SDS011;27206;47.032;15.484;2023-04-05T02:52:44;7.47;;;2.17;;
41468;SDS011;27206;47.032;15.484;2023-04-05T02:55:11;8.88;;;2.53;;
41468;SDS011;27206;47.032;15.484;2023-04-05T02:57:36;7.00;;;2.22;;
41468;SDS011;27206;47.032;15.484;2023-04-05T03:00:02;6.43;;;2.35;;
41468;SDS011;27206;47.032;15.484;2023-04-05T03:02:29;6.07;;;2.42;;
41468;SDS011;27206;47.032;15.484;2023-04-05T03:04:55;4.00;;;1.92;;
41468;SDS011;27206;47.032;15.484;2023-04-05T03:07:21;9.27;;;2.45;;
41468;SDS011;27206;47.032;15.484;2023-04-05T03:09:49;8.68;;;3.38;;
41468;SDS011;27206;47.032;15.484;2023-04-05T03:12:15;7.20;;;2.60;;
41468;SDS011;27206;47.032;15.484;2023-04-05T03:14:41;9.50;;;3.53;;
41468;SDS011;27206;47.032;15.484;2023-04-05T03:17:06;14.30;;;4.15;;
41468;SDS011;27206;47.032;15.484;2023-04-05T03:19:32;5.97;;;2.83;;
41468;SDS011;27206;47.032;15.484;2023-04-05T03:21:59;6.85;;;3.28;;
41468;SDS011;27206;47.032;15.484;2023-04-05T03:24:25;7.55;;;3.50;;
41468;SDS011;27206;47.032;15.484;2023-04-05T03:26:51;10.38;;;2.95;;
41468;SDS011;27206;47.032;15.484;2023-04-05T03:29:17;5.55;;;2.78;;
41468;SDS011;27206;47.032;15.484;2023-04-05T03:31:43;6.03;;;2.40;;
41468;SDS011;27206;47.032;15.484;2023-04-05T03:34:09;5.13;;;2.30;;
41468;SDS011;27206;47.032;15.484;2023-04-05T03:36:35;7.10;;;2.70;;
41468;SDS011;27206;47.032;15.484;2023-04-05T03:39:10;5.90;;;2.80;;
41468;SDS011;27206;47.032;15.484;2023-04-05T03:41:40;5.72;;;2.65;;
41468;SDS011;27206;47.032;15.484;2023-04-05T03:44:06;5.30;;;2.50;;
41468;SDS011;27206;47.032;15.484;2023-04-05T03:46:33;11.43;;;3.25;;
41468;SDS011;27206;47.032;15.484;2023-04-05T03:49:01;8.25;;;3.47;;
41468;SDS011;27206;47.032;15.484;2023-04-05T03:51:28;6.25;;;3.00;;
41468;SDS011;27206;47.032;15.484;2023-04-05T03:53:53;7.63;;;3.05;;
41468;SDS011;27206;47.032;15.484;2023-04-05T03:56:19;9.70;;;3.33;;
41468;SDS011;27206;47.032;15.484;2023-04-05T03:58:45;6.30;;;2.63;;
41468;SDS011;27206;47.032;15.484;2023-04-05T04:01:11;6.35;;;2.90;;
41468;SDS011;27206;47.032;15.484;2023-04-05T04:03:37;5.88;;;3.15;;
41468;SDS011;27206;47.032;15.484;2023-04-05T04:06:03;4.35;;;2.83;;
41468;SDS011;27206;47.032;15.484;2023-04-05T04:08:30;8.30;;;3.58;;
41468;SDS011;27206;47.032;15.484;2023-04-05T04:10:56;5.20;;;2.95;;
41468;SDS011;27206;47.032;15.484;2023-04-05T04:13:22;5.50;;;2.75;;
41468;SDS011;27206;47.032;15.484;2023-04-05T04:15:47;4.43;;;3.15;;
41468;SDS011;27206;47.032;15.484;2023-04-05T04:18:13;6.13;;;3.30;;
41468;SDS011;27206;47.032;15.484;2023-04-05T04:20:38;5.32;;;2.80;;
41468;SDS011;27206;47.032;15.484;2023-04-05T04:23:04;5.05;;;2.53;;
41468;SDS011;27206;47.032;15.484;2023-04-05T04:25:37;6.35;;;2.67;;
41468;SDS011;27206;47.032;15.484;2023-04-05T04:28:03;7.53;;;3.13;;
41468;SDS011;27206;47.032;15.484;2023-04-05T04:30:33;7.13;;;2.88;;
41468;SDS011;27206;47.032;15.484;2023-04-05T04:33:00;7.07;;;3.40;;
41468;SDS011;27206;47.032;15.484;2023-04-05T04:35:28;10.25;;;3.45;;
41468;SDS011;27206;47.032;15.484;2023-04-05T04:37:59;10.10;;;4.22;;
41468;SDS011;27206;47.032;15.484;2023-04-05T04:40:29;7.93;;;3.65;;
41468;SDS011;27206;47.032;15.484;2023-04-05T04:43:02;9.15;;;3.67;;
41468;SDS011;27206;47.032;15.484;2023-04-05T04:45:28;9.25;;;4.32;;
41468;SDS011;27206;47.032;15.484;2023-04-05T04:47:58;7.28;;;3.08;;
41468;SDS011;27206;47.032;15.484;2023-04-05T04:50:25;9.25;;;3.28;;
41468;SDS011;27206;47.032;15.484;2023-04-05T04:52:51;5.80;;;3.00;;
41468;SDS011;27206;47.032;15.484;2023-04-05T04:55:16;7.03;;;3.25;;
41468;SDS011;27206;47.032;15.484;2023-04-05T04:57:50;8.95;;;3.22;;
41468;SDS011;27206;47.032;15.484;2023-04-05T05:00:16;7.28;;;2.75;;
41468;SDS011;27206;47.032;15.484;2023-04-05T05:02:43;9.68;;;3.40;;
41468;SDS011;27206;47.032;15.484;2023-04-05T05:05:09;8.82;;;3.22;;
41468;SDS011;27206;47.032;15.484;2023-04-05T05:07:35;8.02;;;3.05;;
41468;SDS011;27206;47.032;15.484;2023-04-05T05:10:05;8.18;;;2.70;;
41468;SDS011;27206;47.032;15.484;2023-04-05T05:12:31;7.35;;;3.03;;
41468;SDS011;27206;47.032;15.484;2023-04-05T05:14:57;7.72;;;3.10;;
41468;SDS011;27206;47.032;15.484;2023-04-05T05:17:23;8.23;;;3.72;;
41468;SDS011;27206;47.032;15.484;2023-04-05T05:19:48;7.10;;;3.70;;
41468;SDS011;27206;47.032;15.484;2023-04-05T05:22:15;6.57;;;3.60;;
41468;SDS011;27206;47.032;15.484;2023-04-05T05:24:40;6.10;;;3.10;;
41468;SDS011;27206;47.032;15.484;2023-04-05T05:27:06;5.60;;;3.13;;
41468;SDS011;27206;47.032;15.484;2023-04-05T05:29:32;8.15;;;3.20;;
41468;SDS011;27206;47.032;15.484;2023-04-05T05:31:58;11.25;;;3.70;;
41468;SDS011;27206;47.032;15.484;2023-04-05T05:34:23;10.60;;;3.75;;
41468;SDS011;27206;47.032;15.484;2023-04-05T05:36:49;7.85;;;3.25;;
41468;SDS011;27206;47.032;15.484;2023-04-05T05:39:21;7.07;;;3.17;;
41468;SDS011;27206;47.032;15.484;2023-04-05T05:41:47;10.90;;;4.05;;
41468;SDS011;27206;47.032;15.484;2023-04-05T05:44:13;10.60;;;3.67;;
41468;SDS011;27206;47.032;15.484;2023-04-05T05:46:39;12.48;;;4.13;;
41468;SDS011;27206;47.032;15.484;2023-04-05T05:49:05;8.13;;;3.72;;
41468;SDS011;27206;47.032;15.484;2023-04-05T05:51:31;11.32;;;4.20;;
41468;SDS011;27206;47.032;15.484;2023-04-05T05:53:57;15.93;;;4.28;;
41468;SDS011;27206;47.032;15.484;2023-04-05T05:56:23;9.35;;;3.95;;
41468;SDS011;27206;47.032;15.484;2023-04-05T05:58:48;7.47;;;3.80;;
41468;SDS011;27206;47.032;15.484;2023-04-05T06:01:14;9.18;;;4.10;;
41468;SDS011;27206;47.032;15.484;2023-04-05T06:03:40;9.80;;;4.05;;
41468;SDS011;27206;47.032;15.484;2023-04-05T06:06:05;6.90;;;3.83;;
41468;SDS011;27206;47.032;15.484;2023-04-05T06:08:35;9.43;;;4.03;;
41468;SDS011;27206;47.032;15.484;2023-04-05T06:11:01;8.02;;;3.42;;
41468;SDS011;27206;47.032;15.484;2023-04-05T06:13:27;8.00;;;4.05;;
41468;SDS011;27206;47.032;15.484;2023-04-05T06:15:52;6.97;;;3.22;;
41468;SDS011;27206;47.032;15.484;2023-04-05T06:18:18;8.68;;;2.80;;
41468;SDS011;27206;47.032;15.484;2023-04-05T06:20:45;7.57;;;3.22;;
41468;SDS011;27206;47.032;15.484;2023-04-05T06:23:11;7.90;;;2.92;;
41468;SDS011;27206;47.032;15.484;2023-04-05T06:25:36;4.90;;;2.55;;
41468;SDS011;27206;47.032;15.484;2023-04-05T06:28:02;7.28;;;2.90;;
41468;SDS011;27206;47.032;15.484;2023-04-05T06:30:29;6.72;;;2.83;;
41468;SDS011;27206;47.032;15.484;2023-04-05T06:32:56;6.55;;;2.67;;
41468;SDS011;27206;47.032;15.484;2023-04-05T06:35:22;7.63;;;2.78;;
41468;SDS011;27206;47.032;15.484;2023-04-05T06:37:49;3.92;;;2.05;;
41468;SDS011;27206;47.032;15.484;2023-04-05T06:40:15;5.97;;;2.72;;
41468;SDS011;27206;47.032;15.484;2023-04-05T06:42:41;6.68;;;3.15;;
41468;SDS011;27206;47.032;15.484;2023-04-05T06:45:07;7.80;;;3.13;;
41468;SDS011;27206;47.032;15.484;2023-04-05T06:47:34;7.03;;;3.00;;
41468;SDS011;27206;47.032;15.484;2023-04-05T06:50:01;6.53;;;2.67;;
41468;SDS011;27206;47.032;15.484;2023-04-05T06:52:31;4.43;;;2.17;;
41468;SDS011;27206;47.032;15.484;2023-04-05T06:54:57;6.55;;;2.47;;
41468;SDS011;27206;47.032;15.484;2023-04-05T06:57:23;8.15;;;2.33;;
41468;SDS011;27206;47.032;15.484;2023-04-05T06:59:49;7.15;;;2.67;;
41468;SDS011;27206;47.032;15.484;2023-04-05T07:02:16;5.28;;;2.40;;
41468;SDS011;27206;47.032;15.484;2023-04-05T07:04:44;10.38;;;2.85;;
41468;SDS011;27206;47.032;15.484;2023-04-05T07:07:11;5.18;;;2.60;;
41468;SDS011;27206;47.032;15.484;2023-04-05T07:09:37;5.95;;;2.38;;
41468;SDS011;27206;47.032;15.484;2023-04-05T07:12:03;6.57;;;2.55;;
41468;SDS011;27206;47.032;15.484;2023-04-05T07:14:30;6.18;;;2.35;;
41468;SDS011;27206;47.032;15.484;2023-04-05T07:16:57;5.57;;;2.90;;
41468;SDS011;27206;47.032;15.484;2023-04-05T07:19:23;6.82;;;2.38;;
41468;SDS011;27206;47.032;15.484;2023-04-05T07:21:48;6.10;;;2.38;;
41468;SDS011;27206;47.032;15.484;2023-04-05T07:24:14;6.57;;;2.47;;
41468;SDS011;27206;47.032;15.484;2023-04-05T07:26:40;5.05;;;2.22;;
41468;SDS011;27206;47.032;15.484;2023-04-05T07:29:06;4.95;;;2.53;;
41468;SDS011;27206;47.032;15.484;2023-04-05T07:31:33;6.03;;;2.67;;
41468;SDS011;27206;47.032;15.484;2023-04-05T07:33:59;5.78;;;2.42;;
41468;SDS011;27206;47.032;15.484;2023-04-05T07:36:26;4.03;;;2.05;;
41468;SDS011;27206;47.032;15.484;2023-04-05T07:38:54;7.82;;;2.83;;
41468;SDS011;27206;47.032;15.484;2023-04-05T07:41:21;10.00;;;3.00;;
41468;SDS011;27206;47.032;15.484;2023-04-05T07:43:47;6.22;;;3.42;;
41468;SDS011;27206;47.032;15.484;2023-04-05T07:46:14;5.82;;;2.53;;
41468;SDS011;27206;47.032;15.484;2023-04-05T07:48:41;5.45;;;3.10;;
41468;SDS011;27206;47.032;15.484;2023-04-05T07:51:10;9.82;;;3.08;;
41468;SDS011;27206;47.032;15.484;2023-04-05T07:53:36;5.63;;;2.53;;
41468;SDS011;27206;47.032;15.484;2023-04-05T07:56:02;6.70;;;2.13;;
41468;SDS011;27206;47.032;15.484;2023-04-05T07:58:32;8.48;;;2.88;;
41468;SDS011;27206;47.032;15.484;2023-04-05T08:01:02;6.28;;;2.30;;
41468;SDS011;27206;47.032;15.484;2023-04-05T08:03:28;5.18;;;2.42;;
41468;SDS011;27206;47.032;15.484;2023-04-05T08:05:55;6.18;;;3.03;;
41468;SDS011;27206;47.032;15.484;2023-04-05T08:08:23;9.38;;;3.28;;
41468;SDS011;27206;47.032;15.484;2023-04-05T08:10:49;5.53;;;2.55;;
41468;SDS011;27206;47.032;15.484;2023-04-05T08:13:15;6.05;;;2.70;;
41468;SDS011;27206;47.032;15.484;2023-04-05T08:15:40;4.70;;;2.47;;
41468;SDS011;27206;47.032;15.484;2023-04-05T08:18:06;8.98;;;3.08;;
41468;SDS011;27206;47.032;15.484;2023-04-05T08:20:32;4.18;;;2.13;;
41468;SDS011;27206;47.032;15.484;2023-04-05T08:23:03;5.97;;;2.40;;
41468;SDS011;27206;47.032;15.484;2023-04-05T08:25:29;6.28;;;2.45;;
41468;SDS011;27206;47.032;15.484;2023-04-05T08:27:55;6.40;;;2.78;;
41468;SDS011;27206;47.032;15.484;2023-04-05T08:30:20;4.72;;;2.40;;
41468;SDS011;27206;47.032;15.484;2023-04-05T08:32:47;6.07;;;2.20;;
41468;SDS011;27206;47.032;15.484;2023-04-05T08:35:13;5.18;;;2.10;;
41468;SDS011;27206;47.032;15.484;2023-04-05T08:37:39;6.80;;;2.72;;
41468;SDS011;27206;47.032;15.484;2023-04-05T08:40:05;4.25;;;1.77;;
41468;SDS011;27206;47.032;15.484;2023-04-05T08:42:36;4.85;;;2.13;;
41468;SDS011;27206;47.032;15.484;2023-04-05T08:45:08;3.45;;;1.75;;
41468;SDS011;27206;47.032;15.484;2023-04-05T08:47:35;6.90;;;2.38;;
41468;SDS011;27206;47.032;15.484;2023-04-05T08:50:02;5.40;;;2.08;;
41468;SDS011;27206;47.032;15.484;2023-04-05T08:52:31;5.47;;;2.58;;
41468;SDS011;27206;47.032;15.484;2023-04-05T08:54:58;5.10;;;2.13;;
41468;SDS011;27206;47.032;15.484;2023-04-05T08:57:24;5.72;;;2.83;;
41468;SDS011;27206;47.032;15.484;2023-04-05T08:59:52;4.13;;;1.98;;
41468;SDS011;27206;47.032;15.484;2023-04-05T09:02:20;4.53;;;2.25;;
41468;SDS011;27206;47.032;15.484;2023-04-05T09:04:48;8.25;;;1.55;;
41468;SDS011;27206;47.032;15.484;2023-04-05T09:07:14;3.35;;;1.58;;
41468;SDS011;27206;47.032;15.484;2023-04-05T09:09:43;5.15;;;2.20;;
41468;SDS011;27206;47.032;15.484;2023-04-05T09:12:11;4.63;;;2.00;;
41468;SDS011;27206;47.032;15.484;2023-04-05T09:14:38;5.20;;;1.73;;
41468;SDS011;27206;47.032;15.484;2023-04-05T09:17:04;4.85;;;1.88;;
41468;SDS011;27206;47.032;15.484;2023-04-05T09:19:30;4.05;;;1.75;;
41468;SDS011;27206;47.032;15.484;2023-04-05T09:22:00;4.93;;;1.85;;
41468;SDS011;27206;47.032;15.484;2023-04-05T09:29:31;4.95;;;2.38;;
41468;SDS011;27206;47.032;15.484;2023-04-05T09:31:58;9.05;;;2.13;;
41468;SDS011;27206;47.032;15.484;2023-04-05T09:34:25;4.40;;;2.33;;
41468;SDS011;27206;47.032;15.484;2023-04-05T09:36:51;5.35;;;2.17;;
41468;SDS011;27206;47.032;15.484;2023-04-05T09:39:22;4.85;;;1.98;;
41468;SDS011;27206;47.032;15.484;2023-04-05T09:42:10;6.65;;;2.28;;
41468;SDS011;27206;47.032;15.484;2023-04-05T09:44:50;3.97;;;1.50;;
41468;SDS011;27206;47.032;15.484;2023-04-05T09:47:27;4.45;;;1.90;;
41468;SDS011;27206;47.032;15.484;2023-04-05T09:50:02;4.07;;;1.80;;
41468;SDS011;27206;47.032;15.484;2023-04-05T09:52:42;7.20;;;2.25;;
41468;SDS011;27206;47.032;15.484;2023-04-05T09:55:08;5.47;;;2.28;;
41468;SDS011;27206;47.032;15.484;2023-04-05T09:57:40;6.32;;;2.30;;
41468;SDS011;27206;47.032;15.484;2023-04-05T10:00:21;3.55;;;1.83;;
41468;SDS011;27206;47.032;15.484;2023-04-05T10:02:51;4.03;;;1.67;;
41468;SDS011;27206;47.032;15.484;2023-04-05T10:05:24;5.57;;;2.08;;
41468;SDS011;27206;47.032;15.484;2023-04-05T10:07:51;3.88;;;1.65;;
41468;SDS011;27206;47.032;15.484;2023-04-05T10:10:19;4.43;;;2.00;;
41468;SDS011;27206;47.032;15.484;2023-04-05T10:12:46;3.85;;;1.90;;
41468;SDS011;27206;47.032;15.484;2023-04-05T10:15:14;3.20;;;1.70;;
41468;SDS011;27206;47.032;15.484;2023-04-05T10:20:43;3.55;;;1.58;;
41468;SDS011;27206;47.032;15.484;2023-04-05T10:23:12;3.42;;;1.70;;
41468;SDS011;27206;47.032;15.484;2023-04-05T10:31:44;4.93;;;1.90;;
41468;SDS011;27206;47.032;15.484;2023-04-05T10:34:17;3.90;;;1.58;;
41468;SDS011;27206;47.032;15.484;2023-04-05T10:39:57;6.28;;;1.90;;
41468;SDS011;27206;47.032;15.484;2023-04-05T10:42:10;2.70;;;1.40;;
41468;SDS011;27206;47.032;15.484;2023-04-05T10:44:45;2.88;;;1.48;;
41468;SDS011;27206;47.032;15.484;2023-04-05T10:47:15;4.55;;;1.70;;
41468;SDS011;27206;47.032;15.484;2023-04-05T10:49:48;4.55;;;1.70;;
41468;SDS011;27206;47.032;15.484;2023-04-05T10:52:17;3.72;;;1.70;;
41468;SDS011;27206;47.032;15.484;2023-04-05T10:54:44;4.32;;;1.67;;
41468;SDS011;27206;47.032;15.484;2023-04-05T10:57:10;3.42;;;1.50;;
41468;SDS011;27206;47.032;15.484;2023-04-05T10:59:44;4.80;;;1.80;;
41468;SDS011;27206;47.032;15.484;2023-04-05T11:02:10;4.07;;;1.50;;
41468;SDS011;27206;47.032;15.484;2023-04-05T11:04:38;4.15;;;1.70;;
41468;SDS011;27206;47.032;15.484;2023-04-05T11:07:17;3.58;;;1.52;;
41468;SDS011;27206;47.032;15.484;2023-04-05T11:12:18;4.43;;;1.50;;
41468;SDS011;27206;47.032;15.484;2023-04-05T11:14:44;3.15;;;1.58;;
41468;SDS011;27206;47.032;15.484;2023-04-05T11:17:26;4.78;;;1.75;;
41468;SDS011;27206;47.032;15.484;2023-04-05T11:20:02;3.45;;;1.45;;
41468;SDS011;27206;47.032;15.484;2023-04-05T11:22:30;3.95;;;1.88;;
41468;SDS011;27206;47.032;15.484;2023-04-05T11:24:59;3.30;;;1.50;;
41468;SDS011;27206;47.032;15.484;2023-04-05T11:27:33;2.58;;;1.30;;
41468;SDS011;27206;47.032;15.484;2023-04-05T11:30:05;3.63;;;1.45;;
41468;SDS011;27206;47.032;15.484;2023-04-05T11:32:44;3.33;;;2.10;;
41468;SDS011;27206;47.032;15.484;2023-04-05T11:35:16;3.28;;;1.60;;
41468;SDS011;27206;47.032;15.484;2023-04-05T11:43:04;2.72;;;1.30;;
41468;SDS011;27206;47.032;15.484;2023-04-05T11:45:32;4.35;;;1.45;;
41468;SDS011;27206;47.032;15.484;2023-04-05T11:48:08;3.00;;;1.40;;
41468;SDS011;27206;47.032;15.484;2023-04-05T11:50:36;3.40;;;1.50;;
41468;SDS011;27206;47.032;15.484;2023-04-05T11:53:09;3.67;;;1.50;;
41468;SDS011;27206;47.032;15.484;2023-04-05T11:55:48;5.22;;;1.75;;
41468;SDS011;27206;47.032;15.484;2023-04-05T11:58:19;2.50;;;1.30;;
41468;SDS011;27206;47.032;15.484;2023-04-05T12:00:47;3.03;;;1.27;;
41468;SDS011;27206;47.032;15.484;2023-04-05T12:03:22;3.47;;;1.30;;
41468;SDS011;27206;47.032;15.484;2023-04-05T12:05:49;3.90;;;1.23;;
41468;SDS011;27206;47.032;15.484;2023-04-05T12:08:19;2.58;;;1.38;;
41468;SDS011;27206;47.032;15.484;2023-04-05T12:10:52;2.45;;;1.27;;
41468;SDS011;27206;47.032;15.484;2023-04-05T12:15:58;2.88;;;1.40;;
41468;SDS011;27206;47.032;15.484;2023-04-05T12:18:25;4.10;;;1.45;;
41468;SDS011;27206;47.032;15.484;2023-04-05T12:20:52;2.53;;;1.30;;
41468;SDS011;27206;47.032;15.484;2023-04-05T12:23:18;3.88;;;1.35;;
41468;SDS011;27206;47.032;15.484;2023-04-05T12:25:48;4.10;;;1.58;;
41468;SDS011;27206;47.032;15.484;2023-04-05T12:28:15;3.55;;;1.52;;
41468;SDS011;27206;47.032;15.484;2023-04-05T12:30:56;5.70;;;1.60;;
41468;SDS011;27206;47.032;15.484;2023-04-05T12:33:30;3.15;;;1.58;;
41468;SDS011;27206;47.032;15.484;2023-04-05T12:35:58;2.70;;;1.45;;
41468;SDS011;27206;47.032;15.484;2023-04-05T12:38:28;4.60;;;1.48;;
41468;SDS011;27206;47.032;15.484;2023-04-05T12:41:03;2.35;;;1.38;;
41468;SDS011;27206;47.032;15.484;2023-04-05T12:43:39;2.75;;;1.27;;
41468;SDS011;27206;47.032;15.484;2023-04-05T12:46:08;4.38;;;1.20;;
41468;SDS011;27206;47.032;15.484;2023-04-05T12:48:35;2.58;;;1.08;;
41468;SDS011;27206;47.032;15.484;2023-04-05T12:51:02;3.72;;;1.38;;
41468;SDS011;27206;47.032;15.484;2023-04-05T12:53:29;2.03;;;1.05;;
41468;SDS011;27206;47.032;15.484;2023-04-05T12:55:55;3.35;;;1.30;;
41468;SDS011;27206;47.032;15.484;2023-04-05T12:58:31;2.15;;;1.15;;
41468;SDS011;27206;47.032;15.484;2023-04-05T13:01:00;2.40;;;1.23;;
41468;SDS011;27206;47.032;15.484;2023-04-05T13:03:26;3.40;;;1.35;;
41468;SDS011;27206;47.032;15.484;2023-04-05T13:05:52;2.65;;;1.10;;
41468;SDS011;27206;47.032;15.484;2023-04-05T13:08:18;2.55;;;1.20;;
41468;SDS011;27206;47.032;15.484;2023-04-05T13:10:47;2.63;;;1.10;;
41468;SDS011;27206;47.032;15.484;2023-04-05T13:13:14;3.45;;;1.42;;
41468;SDS011;27206;47.032;15.484;2023-04-05T13:15:40;3.50;;;1.00;;
41468;SDS011;27206;47.032;15.484;2023-04-05T13:18:06;2.40;;;1.27;;
41468;SDS011;27206;47.032;15.484;2023-04-05T13:20:32;2.65;;;1.00;;
41468;SDS011;27206;47.032;15.484;2023-04-05T13:22:58;2.95;;;1.00;;
41468;SDS011;27206;47.032;15.484;2023-04-05T13:25:24;2.17;;;1.23;;
41468;SDS011;27206;47.032;15.484;2023-04-05T13:27:51;2.38;;;1.25;;
41468;SDS011;27206;47.032;15.484;2023-04-05T13:30:16;2.08;;;1.10;;
41468;SDS011;27206;47.032;15.484;2023-04-05T13:32:42;2.95;;;1.30;;
41468;SDS011;27206;47.032;15.484;2023-04-05T13:35:08;1.88;;;1.10;;
41468;SDS011;27206;47.032;15.484;2023-04-05T13:37:35;3.60;;;1.55;;
41468;SDS011;27206;47.032;15.484;2023-04-05T13:40:00;2.45;;;1.10;;
41468;SDS011;27206;47.032;15.484;2023-04-05T13:42:26;2.90;;;1.40;;
41468;SDS011;27206;47.032;15.484;2023-04-05T13:44:52;3.38;;;1.35;;
41468;SDS011;27206;47.032;15.484;2023-04-05T13:47:17;5.90;;;1.55;;
41468;SDS011;27206;47.032;15.484;2023-04-05T13:49:44;1.92;;;0.80;;
41468;SDS011;27206;47.032;15.484;2023-04-05T13:52:10;2.15;;;1.20;;
41468;SDS011;27206;47.032;15.484;2023-04-05T13:54:36;3.35;;;1.23;;
41468;SDS011;27206;47.032;15.484;2023-04-05T13:57:02;2.22;;;1.23;;
41468;SDS011;27206;47.032;15.484;2023-04-05T13:59:28;2.20;;;1.10;;
41468;SDS011;27206;47.032;15.484;2023-04-05T14:01:53;2.60;;;1.15;;
41468;SDS011;27206;47.032;15.484;2023-04-05T14:04:19;2.33;;;1.10;;
41468;SDS011;27206;47.032;15.484;2023-04-05T14:06:45;4.03;;;1.20;;
41468;SDS011;27206;47.032;15.484;2023-04-05T14:09:10;2.33;;;1.25;;
41468;SDS011;27206;47.032;15.484;2023-04-05T14:11:36;4.00;;;1.13;;
41468;SDS011;27206;47.032;15.484;2023-04-05T14:14:02;3.45;;;1.25;;
41468;SDS011;27206;47.032;15.484;2023-04-05T14:16:28;2.53;;;1.10;;
41468;SDS011;27206;47.032;15.484;2023-04-05T14:18:55;3.10;;;1.73;;
41468;SDS011;27206;47.032;15.484;2023-04-05T14:21:20;4.80;;;1.85;;
41468;SDS011;27206;47.032;15.484;2023-04-05T14:23:47;4.00;;;1.60;;
41468;SDS011;27206;47.032;15.484;2023-04-05T14:26:14;2.85;;;1.10;;
41468;SDS011;27206;47.032;15.484;2023-04-05T14:28:40;2.28;;;1.20;;
41468;SDS011;27206;47.032;15.484;2023-04-05T14:31:06;3.00;;;1.40;;
41468;SDS011;27206;47.032;15.484;2023-04-05T14:33:32;2.08;;;1.10;;
41468;SDS011;27206;47.032;15.484;2023-04-05T14:35:57;3.17;;;1.23;;
41468;SDS011;27206;47.032;15.484;2023-04-05T14:38:23;4.35;;;1.60;;
41468;SDS011;27206;47.032;15.484;2023-04-05T14:40:49;3.00;;;1.10;;
41468;SDS011;27206;47.032;15.484;2023-04-05T14:43:15;4.80;;;1.00;;
41468;SDS011;27206;47.032;15.484;2023-04-05T14:45:41;2.33;;;1.02;;
41468;SDS011;27206;47.032;15.484;2023-04-05T14:48:06;2.70;;;1.10;;
41468;SDS011;27206;47.032;15.484;2023-04-05T14:50:32;3.28;;;0.88;;
41468;SDS011;27206;47.032;15.484;2023-04-05T14:52:58;3.92;;;1.30;;
41468;SDS011;27206;47.032;15.484;2023-04-05T14:55:25;2.63;;;0.90;;
41468;SDS011;27206;47.032;15.484;2023-04-05T14:57:51;1.92;;;0.93;;
41468;SDS011;27206;47.032;15.484;2023-04-05T15:00:17;3.38;;;1.30;;
41468;SDS011;27206;47.032;15.484;2023-04-05T15:02:43;2.38;;;0.82;;
41468;SDS011;27206;47.032;15.484;2023-04-05T15:05:10;5.20;;;1.10;;
41468;SDS011;27206;47.032;15.484;2023-04-05T15:07:36;1.85;;;0.88;;
41468;SDS011;27206;47.032;15.484;2023-04-05T15:10:02;1.67;;;0.85;;
41468;SDS011;27206;47.032;15.484;2023-04-05T15:12:28;1.90;;;0.80;;
41468;SDS011;27206;47.032;15.484;2023-04-05T15:14:54;1.80;;;1.02;;